createdAt,value
2023-05-22T00:01:57.350Z,92.10
2023-05-22T00:04:24.398Z,91.26
2023-05-22T00:06:51.633Z,90.72
2023-05-22T00:09:18.699Z,89.88
2023-05-22T00:11:45.855Z,89.16
2023-05-22T00:14:13.877Z,88.19
2023-05-22T00:16:41.450Z,88.12
2023-05-22T00:19:17.374Z,88.25
2023-05-22T00:21:44.579Z,88.61
2023-05-22T00:24:11.726Z,88.74
2023-05-22T00:26:38.818Z,88.95
2023-05-22T00:29:06.125Z,89.05
2023-05-22T00:31:33.495Z,89.33
2023-05-22T00:34:00.902Z,89.52
2023-05-22T00:36:28.065Z,89.90
2023-05-22T00:38:55.255Z,90.44
2023-05-22T00:41:22.418Z,90.82
2023-05-22T00:43:51.229Z,91.33
2023-05-22T00:46:23.129Z,92.06
2023-05-22T00:48:50.318Z,92.48
2023-05-22T00:51:17.327Z,92.85
2023-05-22T00:53:44.673Z,93.18
2023-05-22T00:56:12.646Z,93.54
2023-05-22T00:58:39.663Z,93.73
2023-05-22T01:01:09.851Z,94.18
2023-05-22T01:03:45.089Z,94.45
2023-05-22T01:06:16.172Z,94.46
2023-05-22T01:08:43.839Z,94.74
2023-05-22T01:11:16.042Z,94.79
2023-05-22T01:13:57.150Z,95.55
2023-05-22T01:16:31.430Z,95.80
2023-05-22T01:19:36.089Z,96.47
2023-05-22T01:22:06.132Z,97.45
2023-05-22T01:24:38.267Z,98.25
2023-05-22T01:27:18.364Z,98.93
2023-05-22T01:30:09.357Z,99.47
2023-05-22T01:32:36.605Z,99.93
2023-05-22T01:35:08.269Z,100.00
2023-05-22T01:37:35.473Z,100.00
2023-05-22T01:40:02.487Z,100.00
2023-05-22T01:42:29.618Z,100.00
2023-05-22T01:44:57.672Z,100.00
2023-05-22T01:47:24.869Z,100.00
2023-05-22T01:49:52.292Z,100.00
2023-05-22T01:52:30.010Z,100.00
2023-05-22T01:55:35.325Z,100.00
2023-05-22T01:58:08.521Z,100.00
2023-05-22T02:00:35.688Z,100.00
2023-05-22T02:03:08.119Z,100.00
2023-05-22T02:05:38.211Z,100.00
2023-05-22T02:08:05.682Z,100.00
2023-05-22T02:10:32.716Z,100.00
2023-05-22T02:13:01.090Z,100.00
2023-05-22T02:15:28.749Z,100.00
2023-05-22T02:17:57.082Z,100.00
2023-05-22T02:20:24.189Z,100.00
2023-05-22T02:22:51.221Z,100.00
2023-05-22T02:25:18.392Z,100.00
2023-05-22T02:27:47.567Z,100.00
2023-05-22T02:30:14.841Z,100.00
2023-05-22T02:32:42.227Z,100.00
2023-05-22T02:35:09.781Z,100.00
2023-05-22T02:37:37.150Z,100.00
2023-05-22T02:40:07.588Z,100.00
2023-05-22T02:42:34.801Z,100.00
2023-05-22T02:45:02.595Z,100.00
2023-05-22T02:47:30.148Z,100.00
2023-05-22T02:49:58.210Z,100.00
2023-05-22T02:52:25.477Z,100.00
2023-05-22T02:54:52.522Z,100.00
2023-05-22T02:57:19.951Z,100.00
2023-05-22T02:59:47.050Z,100.00
2023-05-22T03:02:15.582Z,100.00
2023-05-22T03:04:42.681Z,100.00
2023-05-22T03:07:10.219Z,100.00
2023-05-22T03:09:37.437Z,100.00
2023-05-22T03:12:05.400Z,100.00
2023-05-22T03:14:32.562Z,100.00
2023-05-22T03:16:59.867Z,100.00
2023-05-22T03:19:27.340Z,100.00
2023-05-22T03:21:54.604Z,100.00
2023-05-22T03:24:22.178Z,100.00
2023-05-22T03:26:49.342Z,100.00
2023-05-22T03:29:21.814Z,100.00
2023-05-22T03:31:49.052Z,100.00
2023-05-22T03:34:16.972Z,100.00
2023-05-22T03:36:46.343Z,100.00
2023-05-22T03:39:15.365Z,100.00
2023-05-22T03:41:50.254Z,100.00
2023-05-22T03:44:17.681Z,100.00
2023-05-22T03:46:45.863Z,100.00
2023-05-22T03:49:14.021Z,100.00
2023-05-22T03:51:42.261Z,100.00
2023-05-22T03:54:09.526Z,100.00
2023-05-22T03:56:36.557Z,99.86
2023-05-22T03:59:03.599Z,99.29
2023-05-22T04:01:31.508Z,98.75
2023-05-22T04:03:58.729Z,97.71
2023-05-22T04:06:25.873Z,96.59
2023-05-22T04:08:52.945Z,96.41
2023-05-22T04:11:21.160Z,96.10
2023-05-22T04:13:49.696Z,95.44
2023-05-22T04:16:17.810Z,95.01
2023-05-22T04:18:44.992Z,93.78
2023-05-22T04:21:12.931Z,93.58
2023-05-22T04:23:43.445Z,93.00
2023-05-22T04:26:10.563Z,92.39
2023-05-22T04:28:38.190Z,91.69
2023-05-22T04:31:06.856Z,91.14
2023-05-22T04:33:34.883Z,90.97
2023-05-22T04:36:02.957Z,90.73
2023-05-22T04:38:30.387Z,90.24
2023-05-22T04:40:58.440Z,89.86
2023-05-22T04:43:26.988Z,89.61
2023-05-22T04:45:55.094Z,88.81
2023-05-22T04:48:23.215Z,88.24
2023-05-22T04:50:50.465Z,88.28
2023-05-22T04:53:17.873Z,87.64
2023-05-22T04:55:46.161Z,87.07
2023-05-22T04:58:13.236Z,86.43
2023-05-22T05:00:40.673Z,85.92
2023-05-22T05:03:08.516Z,85.67
2023-05-22T05:05:35.875Z,85.95
2023-05-22T05:08:06.097Z,85.21
2023-05-22T05:10:33.116Z,85.21
2023-05-22T05:13:00.202Z,85.99
2023-05-22T05:15:28.356Z,86.20
2023-05-22T05:17:56.210Z,86.84
2023-05-22T05:20:23.664Z,88.35
2023-05-22T05:22:51.278Z,88.76
2023-05-22T05:25:18.391Z,89.28
2023-05-22T05:27:45.880Z,89.37
2023-05-22T05:30:13.589Z,89.07
2023-05-22T05:32:58.491Z,89.42
2023-05-22T05:35:43.397Z,89.88
2023-05-22T05:38:12.768Z,89.80
2023-05-22T05:40:42.260Z,89.98
2023-05-22T05:43:10.251Z,90.15
2023-05-22T05:45:37.850Z,89.87
2023-05-22T05:48:05.384Z,89.26
2023-05-22T05:50:33.297Z,89.12
2023-05-22T05:53:00.419Z,88.95
2023-05-22T05:55:27.629Z,88.78
2023-05-22T05:57:55.479Z,87.98
2023-05-22T06:00:30.334Z,87.28
2023-05-22T06:02:59.658Z,87.45
2023-05-22T06:05:47.315Z,87.86
2023-05-22T06:08:22.507Z,87.87
2023-05-22T06:10:49.916Z,87.02
2023-05-22T06:13:31.262Z,87.29
2023-05-22T06:16:01.324Z,88.09
2023-05-22T06:18:29.974Z,88.74
2023-05-22T06:20:59.214Z,88.47
2023-05-22T06:23:26.550Z,87.89
2023-05-22T06:25:54.230Z,87.15
2023-05-22T06:28:21.622Z,85.56
2023-05-22T06:30:49.728Z,84.79
2023-05-22T06:33:17.957Z,84.03
2023-05-22T06:35:45.867Z,84.57
2023-05-22T06:38:13.099Z,84.86
2023-05-22T06:40:41.170Z,84.44
2023-05-22T06:43:16.694Z,83.18
2023-05-22T06:45:51.438Z,83.34
2023-05-22T06:48:34.103Z,81.81
2023-05-22T06:51:11.140Z,80.91
2023-05-22T06:53:38.504Z,80.88
2023-05-22T06:56:08.322Z,80.40
2023-05-22T06:58:52.296Z,79.21
2023-05-22T07:01:19.857Z,79.69
2023-05-22T07:03:58.469Z,78.75
2023-05-22T07:06:51.315Z,78.96
2023-05-22T07:09:20.072Z,78.05
2023-05-22T07:11:48.290Z,77.39
2023-05-22T07:14:16.249Z,77.52
2023-05-22T07:16:43.589Z,76.34
2023-05-22T07:19:12.179Z,75.96
2023-05-22T07:21:39.562Z,77.12
2023-05-22T07:24:10.080Z,78.33
2023-05-22T07:26:41.295Z,77.71
2023-05-22T07:29:09.362Z,76.56
2023-05-22T07:31:39.230Z,77.55
2023-05-22T07:34:06.470Z,78.21
2023-05-22T07:36:34.916Z,76.79
2023-05-22T07:39:02.343Z,76.89
2023-05-22T07:41:31.199Z,77.98
2023-05-22T07:43:58.321Z,78.48
2023-05-22T07:46:28.871Z,77.57
2023-05-22T07:48:59.979Z,78.10
2023-05-22T07:51:27.391Z,78.51
2023-05-22T07:53:54.696Z,77.77
2023-05-22T07:56:22.521Z,76.48
2023-05-22T07:58:50.119Z,77.07
2023-05-22T08:01:19.230Z,76.78
2023-05-22T08:03:46.454Z,75.35
2023-05-22T08:06:16.072Z,74.52
2023-05-22T08:08:43.276Z,72.40
2023-05-22T08:11:10.517Z,71.34
2023-05-22T08:13:38.985Z,72.48
2023-05-22T08:16:06.639Z,72.71
2023-05-22T08:18:34.776Z,71.98
2023-05-22T08:21:02.188Z,71.43
2023-05-22T08:23:30.123Z,70.73
2023-05-22T08:25:58.260Z,69.91
2023-05-22T08:28:25.429Z,68.24
2023-05-22T08:30:52.495Z,68.37
2023-05-22T08:33:19.923Z,66.85
2023-05-22T08:35:46.973Z,66.16
2023-05-22T08:38:15.199Z,65.49
2023-05-22T08:40:45.261Z,65.25
2023-05-22T08:43:13.326Z,65.13
2023-05-22T08:45:42.647Z,65.82
2023-05-22T08:48:12.751Z,67.19
2023-05-22T08:50:42.517Z,68.93
2023-05-22T08:53:12.753Z,68.44
2023-05-22T08:55:40.098Z,66.97
2023-05-22T08:58:07.172Z,66.57
2023-05-22T09:00:34.212Z,66.59
2023-05-22T09:03:01.406Z,67.01
2023-05-22T09:05:28.619Z,66.84
2023-05-22T09:08:00.397Z,66.22
2023-05-22T09:10:30.302Z,66.09
2023-05-22T09:13:09.650Z,66.59
2023-05-22T09:15:36.972Z,67.28
2023-05-22T09:18:07.081Z,67.15
2023-05-22T09:20:43.585Z,67.49
2023-05-22T09:23:22.208Z,68.53
2023-05-22T09:25:49.493Z,68.99
2023-05-22T09:28:16.642Z,69.49
2023-05-22T09:30:43.758Z,70.02
2023-05-22T09:33:12.817Z,68.82
2023-05-22T09:35:40.052Z,67.65
2023-05-22T09:38:07.152Z,67.19
2023-05-22T09:40:35.319Z,67.56
2023-05-22T09:43:04.437Z,67.41
2023-05-22T09:45:31.449Z,66.74
2023-05-22T09:47:58.547Z,66.78
2023-05-22T09:50:25.709Z,65.09
2023-05-22T09:52:52.934Z,63.07
2023-05-22T09:55:21.746Z,63.37
2023-05-22T09:57:50.336Z,62.80
2023-05-22T10:00:18.669Z,62.69
2023-05-22T10:02:51.119Z,63.20
2023-05-22T10:05:24.289Z,63.59
2023-05-22T10:07:54.799Z,62.42
2023-05-22T10:10:23.152Z,63.15
2023-05-22T10:13:06.466Z,63.69
2023-05-22T10:15:34.089Z,65.77
2023-05-22T10:18:01.718Z,66.28
2023-05-22T10:20:29.607Z,67.09
2023-05-22T10:22:57.509Z,66.84
2023-05-22T10:25:26.064Z,66.08
2023-05-22T10:27:53.968Z,64.16
2023-05-22T10:30:28.188Z,62.68
2023-05-22T10:33:34.269Z,62.48
2023-05-22T10:36:07.044Z,61.37
2023-05-22T10:38:52.340Z,61.04
2023-05-22T10:41:19.633Z,62.30
2023-05-22T10:43:49.092Z,63.09
2023-05-22T10:46:16.348Z,63.69
2023-05-22T10:48:47.250Z,63.54
2023-05-22T10:51:21.827Z,63.43
2023-05-22T10:53:59.176Z,62.90
2023-05-22T10:56:26.724Z,63.01
2023-05-22T10:58:58.504Z,62.86
2023-05-22T11:01:26.097Z,63.51
2023-05-22T11:04:09.300Z,62.87
2023-05-22T11:07:15.474Z,62.17
2023-05-22T11:09:43.512Z,60.43
2023-05-22T11:12:13.281Z,58.84
2023-05-22T11:14:40.509Z,57.42
2023-05-22T11:17:07.621Z,56.28
2023-05-22T11:19:34.823Z,55.31
2023-05-22T11:22:04.758Z,56.08
2023-05-22T11:24:35.121Z,56.34
2023-05-22T11:27:06.132Z,56.56
2023-05-22T11:29:33.511Z,57.44
2023-05-22T11:32:00.857Z,57.58
2023-05-22T11:34:28.140Z,56.71
2023-05-22T11:36:59.917Z,55.19
2023-05-22T11:39:27.512Z,54.77
2023-05-22T11:41:55.134Z,55.35
2023-05-22T11:44:22.189Z,54.74
2023-05-22T11:46:49.338Z,53.60
2023-05-22T11:49:17.451Z,52.48
2023-05-22T11:51:44.705Z,51.50
2023-05-22T11:54:12.079Z,51.74
2023-05-22T11:56:39.147Z,52.53
2023-05-22T11:59:06.237Z,52.95
2023-05-22T12:01:33.811Z,52.47
2023-05-22T12:04:01.798Z,52.79
2023-05-22T12:06:33.425Z,53.34
2023-05-22T12:09:01.446Z,53.03
2023-05-22T12:11:29.189Z,53.21
2023-05-22T12:14:06.317Z,52.61
2023-05-22T12:16:37.179Z,51.61
2023-05-22T12:19:08.314Z,52.08
2023-05-22T12:21:36.823Z,50.93
2023-05-22T12:24:05.176Z,50.61
2023-05-22T12:26:33.078Z,50.56
2023-05-22T12:29:00.929Z,49.89
2023-05-22T12:31:28.573Z,50.11
2023-05-22T12:33:56.713Z,50.61
2023-05-22T12:36:35.180Z,51.48
2023-05-22T12:39:02.834Z,52.51
2023-05-22T12:41:30.414Z,52.52
2023-05-22T12:43:57.931Z,52.61
2023-05-22T12:46:25.868Z,52.86
2023-05-22T12:48:54.178Z,52.50
2023-05-22T12:51:21.806Z,52.37
2023-05-22T12:53:49.542Z,51.44
2023-05-22T12:56:17.154Z,51.28
2023-05-22T12:58:44.775Z,50.24
2023-05-22T13:01:12.483Z,50.48
2023-05-22T13:03:40.286Z,50.60
2023-05-22T13:06:08.255Z,50.24
2023-05-22T13:08:35.936Z,49.68
2023-05-22T13:11:03.551Z,48.97
2023-05-22T13:13:31.351Z,48.81
2023-05-22T13:15:59.189Z,49.13
2023-05-22T13:18:26.719Z,49.83
2023-05-22T13:20:56.478Z,49.53
2023-05-22T13:23:24.201Z,49.40
2023-05-22T13:25:51.775Z,49.31
2023-05-22T13:28:19.494Z,49.94
2023-05-22T13:30:47.075Z,50.48
2023-05-22T13:33:14.637Z,51.13
2023-05-22T13:35:45.059Z,51.15
2023-05-22T13:38:12.910Z,52.01
2023-05-22T13:40:40.628Z,52.42
2023-05-22T13:43:10.113Z,52.47
2023-05-22T13:45:37.942Z,51.49
2023-05-22T13:48:06.047Z,50.84
2023-05-22T13:50:33.761Z,50.18
2023-05-22T13:53:01.981Z,50.55
2023-05-22T13:55:30.092Z,50.99
2023-05-22T13:58:00.173Z,51.56
2023-05-22T14:00:29.003Z,51.90
2023-05-22T14:02:57.957Z,52.91
2023-05-22T14:05:26.045Z,53.14
2023-05-22T14:07:56.097Z,52.91
2023-05-22T14:10:24.166Z,52.72
2023-05-22T14:12:51.806Z,52.51
2023-05-22T14:15:19.440Z,52.54
2023-05-22T14:17:47.116Z,51.95
2023-05-22T14:20:15.323Z,50.71
2023-05-22T14:22:56.524Z,50.66
2023-05-22T14:25:26.382Z,49.65
2023-05-22T14:27:54.000Z,49.25
2023-05-22T14:30:21.765Z,48.18
2023-05-22T14:32:49.452Z,48.05
2023-05-22T14:35:17.201Z,48.16
2023-05-22T14:37:44.885Z,47.96
2023-05-22T14:40:12.603Z,47.41
2023-05-22T14:42:40.428Z,47.26
2023-05-22T14:45:08.773Z,47.09
2023-05-22T14:47:36.841Z,46.92
2023-05-22T14:50:18.197Z,46.90
2023-05-22T14:52:47.678Z,46.70
2023-05-22T14:55:16.175Z,46.76
2023-05-22T14:57:43.915Z,47.06
2023-05-22T15:00:12.678Z,47.32
2023-05-22T15:02:40.988Z,47.76
2023-05-22T15:05:09.844Z,47.73
2023-05-22T15:10:09.868Z,47.80
2023-05-22T15:12:37.655Z,47.59
2023-05-22T15:15:05.837Z,47.82
2023-05-22T15:17:33.604Z,48.53
2023-05-22T15:20:01.507Z,49.21
2023-05-22T15:22:29.030Z,49.48
2023-05-22T15:25:09.843Z,50.03
2023-05-22T15:27:38.489Z,50.63
2023-05-22T15:30:06.969Z,50.91
2023-05-22T15:32:34.688Z,50.52
2023-05-22T15:35:02.329Z,50.32
2023-05-22T15:37:32.426Z,50.15
2023-05-22T15:40:01.680Z,49.89
2023-05-22T15:42:30.079Z,50.35
2023-05-22T15:45:00.722Z,50.80
2023-05-22T15:47:29.081Z,50.57
2023-05-22T15:49:56.755Z,50.71
2023-05-22T15:52:24.907Z,50.52
2023-05-22T15:54:53.199Z,50.10
2023-05-22T15:57:21.584Z,49.65
2023-05-22T15:59:51.080Z,49.81
2023-05-22T16:02:19.727Z,49.99
2023-05-22T16:04:49.042Z,50.49
2023-05-22T16:07:19.027Z,50.69
2023-05-22T16:09:46.731Z,50.95
2023-05-22T16:12:14.509Z,51.04
2023-05-22T16:14:42.647Z,51.01
2023-05-22T16:17:10.367Z,51.14
2023-05-22T16:19:38.664Z,51.54
2023-05-22T16:22:06.589Z,51.70
2023-05-22T16:24:36.460Z,51.71
2023-05-22T16:27:04.619Z,51.89
2023-05-22T16:29:32.798Z,51.80
2023-05-22T16:32:00.592Z,51.94
2023-05-22T16:34:29.969Z,51.89
2023-05-22T16:36:58.170Z,51.82
2023-05-22T16:39:26.883Z,51.50
2023-05-22T16:41:54.529Z,51.66
2023-05-22T16:44:22.124Z,51.65
2023-05-22T16:46:50.081Z,51.70
2023-05-22T16:49:17.766Z,51.68
2023-05-22T16:51:45.665Z,51.56
2023-05-22T16:54:13.437Z,51.71
2023-05-22T16:56:41.299Z,51.69
2023-05-22T16:59:09.235Z,51.82
2023-05-22T17:01:37.663Z,52.11
2023-05-22T17:04:05.478Z,52.46
2023-05-22T17:06:33.237Z,52.85
2023-05-22T17:09:00.859Z,53.07
2023-05-22T17:11:28.646Z,53.42
2023-05-22T17:13:56.328Z,53.89
2023-05-22T17:16:24.181Z,54.26
2023-05-22T17:18:54.143Z,54.40
2023-05-22T17:21:22.950Z,54.80
2023-05-22T17:23:50.839Z,55.19
2023-05-22T17:26:18.915Z,55.39
2023-05-22T17:28:46.850Z,55.73
2023-05-22T17:31:14.990Z,56.15
2023-05-22T17:33:43.755Z,56.29
2023-05-22T17:36:11.440Z,56.46
2023-05-22T17:38:39.139Z,56.69
2023-05-22T17:41:07.179Z,56.62
2023-05-22T17:43:38.391Z,56.55
2023-05-22T17:46:06.751Z,56.49
2023-05-22T17:48:35.189Z,56.72
2023-05-22T17:51:03.872Z,56.78
2023-05-22T17:53:51.685Z,56.82
2023-05-22T17:56:20.183Z,56.54
2023-05-22T17:58:48.533Z,56.20
2023-05-22T18:01:18.251Z,56.37
2023-05-22T18:03:46.192Z,56.23
2023-05-22T18:06:14.148Z,56.31
2023-05-22T18:08:41.928Z,56.38
2023-05-22T18:11:09.535Z,56.12
2023-05-22T18:13:37.117Z,56.15
2023-05-22T18:16:05.155Z,56.34
2023-05-22T18:18:32.953Z,55.99
2023-05-22T18:21:00.750Z,56.35
2023-05-22T18:23:28.823Z,56.47
2023-05-22T18:25:57.503Z,56.78
2023-05-22T18:28:28.227Z,57.05
2023-05-22T18:30:58.264Z,57.39
2023-05-22T18:33:26.126Z,57.74
2023-05-22T18:35:54.739Z,57.93
2023-05-22T18:38:22.510Z,58.24
2023-05-22T18:40:50.139Z,58.30
2023-05-22T18:43:18.062Z,58.35
2023-05-22T18:45:46.045Z,58.19
2023-05-22T18:48:13.822Z,58.01
2023-05-22T18:50:41.933Z,58.09
2023-05-22T18:53:10.285Z,58.27
2023-05-22T18:55:38.073Z,58.48
2023-05-22T18:58:05.828Z,58.97
2023-05-22T19:00:33.654Z,59.30
2023-05-22T19:03:03.825Z,59.71
2023-05-22T19:05:35.195Z,60.04
2023-05-22T19:08:03.232Z,60.34
2023-05-22T19:10:31.126Z,60.78
2023-05-22T19:13:00.594Z,61.04
2023-05-22T19:15:28.401Z,61.45
2023-05-22T19:17:56.055Z,61.97
2023-05-22T19:20:23.976Z,62.88
2023-05-22T19:22:51.804Z,63.49
2023-05-22T19:25:19.971Z,64.22
2023-05-22T19:27:48.246Z,65.27
2023-05-22T19:30:16.690Z,65.97
2023-05-22T19:32:46.281Z,66.39
2023-05-22T19:35:14.559Z,67.06
2023-05-22T19:37:42.410Z,67.73
2023-05-22T19:40:11.403Z,68.41
2023-05-22T19:42:40.241Z,68.81
2023-05-22T19:45:08.844Z,69.16
2023-05-22T19:47:36.786Z,69.82
2023-05-22T19:50:05.021Z,70.38
2023-05-22T19:52:32.680Z,70.95
2023-05-22T19:55:00.700Z,71.63
2023-05-22T19:57:29.487Z,72.24
2023-05-22T19:59:57.366Z,72.80
2023-05-22T20:02:25.025Z,74.02
2023-05-22T20:04:54.927Z,74.68
2023-05-22T20:07:22.750Z,75.37
2023-05-22T20:09:50.539Z,76.32
2023-05-22T20:12:18.345Z,76.84
2023-05-22T20:14:46.521Z,77.49
2023-05-22T20:17:14.336Z,78.21
2023-05-22T20:19:45.127Z,78.68
2023-05-22T20:22:12.661Z,79.44
2023-05-22T20:24:40.625Z,80.57
2023-05-22T20:27:08.356Z,82.11
2023-05-22T20:29:37.123Z,84.08
2023-05-22T20:32:05.036Z,85.27
2023-05-22T20:34:32.693Z,86.10
2023-05-22T20:37:00.639Z,86.93
2023-05-22T20:39:28.401Z,87.33
2023-05-22T20:41:55.956Z,87.58
2023-05-22T20:44:25.067Z,88.95
2023-05-22T20:46:53.580Z,89.76
2023-05-22T20:49:21.604Z,90.15
2023-05-22T20:51:50.301Z,90.68
2023-05-22T20:54:18.116Z,90.99
2023-05-22T20:56:45.986Z,91.36
2023-05-22T20:59:13.673Z,91.56
2023-05-22T21:01:41.211Z,91.94
2023-05-22T21:04:08.876Z,92.33
2023-05-22T21:06:36.903Z,92.59
2023-05-22T21:09:04.689Z,93.15
2023-05-22T21:11:32.348Z,93.75
2023-05-22T21:13:59.984Z,94.47
2023-05-22T21:16:28.588Z,95.04
2023-05-22T21:18:56.247Z,96.07
2023-05-22T21:21:24.079Z,96.79
2023-05-22T21:23:52.736Z,97.23
2023-05-22T21:26:22.641Z,97.72
2023-05-22T21:28:50.351Z,98.11
2023-05-22T21:31:17.983Z,98.50
2023-05-22T21:33:45.593Z,98.79
2023-05-22T21:36:13.188Z,98.93
2023-05-22T21:38:40.806Z,98.92
2023-05-22T21:41:08.496Z,99.02
2023-05-22T21:43:36.059Z,99.67
2023-05-22T21:46:03.763Z,100.00
2023-05-22T21:48:31.587Z,100.00
2023-05-22T21:50:59.204Z,100.00
2023-05-22T21:53:26.890Z,100.00
2023-05-22T21:55:54.570Z,100.00
2023-05-22T21:58:22.290Z,100.00
2023-05-22T22:00:49.886Z,100.00
2023-05-22T22:03:17.691Z,100.00
2023-05-22T22:05:45.309Z,100.00
2023-05-22T22:08:12.859Z,100.00
2023-05-22T22:10:40.695Z,100.00
2023-05-22T22:13:08.600Z,100.00
2023-05-22T22:15:36.858Z,100.00
2023-05-22T22:18:05.310Z,100.00
2023-05-22T22:20:43.433Z,100.00
2023-05-22T22:23:12.986Z,100.00
2023-05-22T22:25:40.705Z,100.00
2023-05-22T22:28:08.346Z,100.00
2023-05-22T22:30:35.877Z,100.00
2023-05-22T22:33:03.468Z,100.00
2023-05-22T22:35:31.121Z,100.00
2023-05-22T22:37:59.090Z,100.00
2023-05-22T22:40:27.062Z,100.00
2023-05-22T22:42:54.706Z,100.00
2023-05-22T22:45:22.703Z,100.00
2023-05-22T22:47:50.385Z,100.00
2023-05-22T22:50:18.100Z,100.00
2023-05-22T22:52:45.751Z,100.00
2023-05-22T22:55:13.727Z,100.00
2023-05-22T22:57:47.112Z,100.00
2023-05-22T23:00:16.355Z,100.00
2023-05-22T23:02:44.255Z,100.00
2023-05-22T23:05:12.357Z,100.00
2023-05-22T23:07:40.187Z,100.00
2023-05-22T23:10:08.512Z,100.00
2023-05-22T23:12:36.443Z,100.00
2023-05-22T23:15:05.478Z,100.00
2023-05-22T23:17:33.509Z,100.00
2023-05-22T23:20:01.268Z,100.00
2023-05-22T23:22:28.870Z,100.00
2023-05-22T23:24:56.617Z,100.00
2023-05-22T23:27:24.315Z,100.00
2023-05-22T23:29:52.308Z,100.00
2023-05-22T23:32:20.018Z,100.00
2023-05-22T23:34:47.644Z,100.00
2023-05-22T23:37:15.409Z,100.00
2023-05-22T23:39:43.107Z,100.00
2023-05-22T23:42:11.152Z,100.00
2023-05-22T23:44:38.768Z,100.00
2023-05-22T23:47:06.893Z,100.00
2023-05-22T23:49:34.907Z,100.00
2023-05-22T23:52:02.474Z,100.00
2023-05-22T23:54:30.086Z,100.00
2023-05-22T23:56:57.632Z,100.00
2023-05-22T23:59:25.206Z,100.00
